sensor_id;sensor_type;location;lat;lon;timestamp;temperature;humidity
66150;DHT22;52952;50.904;20.648;2024-02-21T00:10:13;28;82
66150;DHT22;52952;50.904;20.648;2024-02-21T00:20:12;28;82
66150;DHT22;52952;50.904;20.648;2024-02-21T00:30:05;28;82
66150;DHT22;52952;50.904;20.648;2024-02-21T00:40:12;28;82
66150;DHT22;52952;50.904;20.648;2024-02-21T00:50:06;28;82
66150;DHT22;52952;50.904;20.648;2024-02-21T01:00:18;28;82
66150;DHT22;52952;50.904;20.648;2024-02-21T01:10:12;28;80
66150;DHT22;52952;50.904;20.648;2024-02-21T01:20:09;28;80
66150;DHT22;52952;50.904;20.648;2024-02-21T01:30:07;28;80
66150;DHT22;52952;50.904;20.648;2024-02-21T01:40:12;28;80
66150;DHT22;52952;50.904;20.648;2024-02-21T01:50:15;28;80
66150;DHT22;52952;50.904;20.648;2024-02-21T02:00:20;28;80
66150;DHT22;52952;50.904;20.648;2024-02-21T02:10:05;28;79
66150;DHT22;52952;50.904;20.648;2024-02-21T02:20:02;28;79
66150;DHT22;52952;50.904;20.648;2024-02-21T02:30:05;28;79
66150;DHT22;52952;50.904;20.648;2024-02-21T02:40:07;28;79
66150;DHT22;52952;50.904;20.648;2024-02-21T02:50:12;28;79
66150;DHT22;52952;50.904;20.648;2024-02-21T03:00:15;28;79
66150;DHT22;52952;50.904;20.648;2024-02-21T03:10:11;28;81
66150;DHT22;52952;50.904;20.648;2024-02-21T03:20:03;28;81
66150;DHT22;52952;50.904;20.648;2024-02-21T03:30:08;28;81
66150;DHT22;52952;50.904;20.648;2024-02-21T03:40:16;28;81
66150;DHT22;52952;50.904;20.648;2024-02-21T03:50:11;28;81
66150;DHT22;52952;50.904;20.648;2024-02-21T04:00:07;28;81
66150;DHT22;52952;50.904;20.648;2024-02-21T04:10:13;28;80
66150;DHT22;52952;50.904;20.648;2024-02-21T04:20:06;28;80
66150;DHT22;52952;50.904;20.648;2024-02-21T04:30:13;28;80
66150;DHT22;52952;50.904;20.648;2024-02-21T04:40:04;28;80
66150;DHT22;52952;50.904;20.648;2024-02-21T04:50:10;28;80
66150;DHT22;52952;50.904;20.648;2024-02-21T05:00:14;28;80
66150;DHT22;52952;50.904;20.648;2024-02-21T05:10:10;28;78
66150;DHT22;52952;50.904;20.648;2024-02-21T05:20:03;28;78
66150;DHT22;52952;50.904;20.648;2024-02-21T05:30:08;28;78
66150;DHT22;52952;50.904;20.648;2024-02-21T05:40:05;28;78
66150;DHT22;52952;50.904;20.648;2024-02-21T05:50:10;28;78
66150;DHT22;52952;50.904;20.648;2024-02-21T06:00:12;28;78
66150;DHT22;52952;50.904;20.648;2024-02-21T06:10:12;28;78
66150;DHT22;52952;50.904;20.648;2024-02-21T06:20:13;28;78
66150;DHT22;52952;50.904;20.648;2024-02-21T06:30:08;28;78
66150;DHT22;52952;50.904;20.648;2024-02-21T06:40:13;28;79
66150;DHT22;52952;50.904;20.648;2024-02-21T06:50:09;28;79
66150;DHT22;52952;50.904;20.648;2024-02-21T07:00:17;28;79
66150;DHT22;52952;50.904;20.648;2024-02-21T07:10:04;28;74
66150;DHT22;52952;50.904;20.648;2024-02-21T07:20:08;28;74
66150;DHT22;52952;50.904;20.648;2024-02-21T07:30:04;28;74
66150;DHT22;52952;50.904;20.648;2024-02-21T07:50:11;28;74
66150;DHT22;52952;50.904;20.648;2024-02-21T08:00:24;28;74
66150;DHT22;52952;50.904;20.648;2024-02-21T08:20:14;28;74
66150;DHT22;52952;50.904;20.648;2024-02-21T08:30:02;28;74
66150;DHT22;52952;50.904;20.648;2024-02-21T08:40:21;28;74
66150;DHT22;52952;50.904;20.648;2024-02-21T08:50:12;28;74
66150;DHT22;52952;50.904;20.648;2024-02-21T09:00:17;28;74
66150;DHT22;52952;50.904;20.648;2024-02-21T09:10:06;26;87
66150;DHT22;52952;50.904;20.648;2024-02-21T09:20:17;26;87
66150;DHT22;52952;50.904;20.648;2024-02-21T09:30:03;26;87
66150;DHT22;52952;50.904;20.648;2024-02-21T09:40:03;26;87
66150;DHT22;52952;50.904;20.648;2024-02-21T09:50:13;26;87
66150;DHT22;52952;50.904;20.648;2024-02-21T10:00:24;26;87
66150;DHT22;52952;50.904;20.648;2024-02-21T10:10:11;26;85
66150;DHT22;52952;50.904;20.648;2024-02-21T10:20:19;26;85
66150;DHT22;52952;50.904;20.648;2024-02-21T10:30:21;26;85
66150;DHT22;52952;50.904;20.648;2024-02-21T10:40:13;26;85
66150;DHT22;52952;50.904;20.648;2024-02-21T10:50:12;26;85
66150;DHT22;52952;50.904;20.648;2024-02-21T11:00:02;26;85
66150;DHT22;52952;50.904;20.648;2024-02-21T11:10:28;27;78
66150;DHT22;52952;50.904;20.648;2024-02-21T11:20:14;27;78
66150;DHT22;52952;50.904;20.648;2024-02-21T11:30:26;27;78
66150;DHT22;52952;50.904;20.648;2024-02-21T11:40:11;27;78
66150;DHT22;52952;50.904;20.648;2024-02-21T11:50:11;27;78
66150;DHT22;52952;50.904;20.648;2024-02-21T12:00:27;27;78
66150;DHT22;52952;50.904;20.648;2024-02-21T12:10:11;27;75
66150;DHT22;52952;50.904;20.648;2024-02-21T12:20:14;27;75
66150;DHT22;52952;50.904;20.648;2024-02-21T12:30:13;27;75
66150;DHT22;52952;50.904;20.648;2024-02-21T12:40:17;27;78
66150;DHT22;52952;50.904;20.648;2024-02-21T12:50:09;27;78
66150;DHT22;52952;50.904;20.648;2024-02-21T13:00:18;27;78
66150;DHT22;52952;50.904;20.648;2024-02-21T13:00:27;27;78
66150;DHT22;52952;50.904;20.648;2024-02-21T13:00:38;27;78
66150;DHT22;52952;50.904;20.648;2024-02-21T13:10:09;27;77
66150;DHT22;52952;50.904;20.648;2024-02-21T13:20:13;27;77
66150;DHT22;52952;50.904;20.648;2024-02-21T13:40:10;27;77
66150;DHT22;52952;50.904;20.648;2024-02-21T13:50:10;27;77
66150;DHT22;52952;50.904;20.648;2024-02-21T14:00:19;27;77
66150;DHT22;52952;50.904;20.648;2024-02-21T14:10:14;27;76
66150;DHT22;52952;50.904;20.648;2024-02-21T14:20:03;27;76
66150;DHT22;52952;50.904;20.648;2024-02-21T14:30:15;27;76
66150;DHT22;52952;50.904;20.648;2024-02-21T14:40:11;27;76
66150;DHT22;52952;50.904;20.648;2024-02-21T14:50:03;27;76
66150;DHT22;52952;50.904;20.648;2024-02-21T15:00:13;27;76
66150;DHT22;52952;50.904;20.648;2024-02-21T15:10:12;28;76
66150;DHT22;52952;50.904;20.648;2024-02-21T15:20:14;28;76
66150;DHT22;52952;50.904;20.648;2024-02-21T15:30:17;28;76
66150;DHT22;52952;50.904;20.648;2024-02-21T15:40:19;28;76
66150;DHT22;52952;50.904;20.648;2024-02-21T15:50:13;28;76
66150;DHT22;52952;50.904;20.648;2024-02-21T16:00:17;28;76
66150;DHT22;52952;50.904;20.648;2024-02-21T16:20:18;28;74
66150;DHT22;52952;50.904;20.648;2024-02-21T16:30:09;28;74
66150;DHT22;52952;50.904;20.648;2024-02-21T16:40:11;28;74
66150;DHT22;52952;50.904;20.648;2024-02-21T16:50:10;28;74
66150;DHT22;52952;50.904;20.648;2024-02-21T17:00:24;28;74
66150;DHT22;52952;50.904;20.648;2024-02-21T17:10:11;28;74
66150;DHT22;52952;50.904;20.648;2024-02-21T17:20:18;28;74
66150;DHT22;52952;50.904;20.648;2024-02-21T17:50:03;28;74
66150;DHT22;52952;50.904;20.648;2024-02-21T18:00:06;28;74
66150;DHT22;52952;50.904;20.648;2024-02-21T18:20:03;29;74
66150;DHT22;52952;50.904;20.648;2024-02-21T18:30:10;29;74
66150;DHT22;52952;50.904;20.648;2024-02-21T18:50:07;29;74
66150;DHT22;52952;50.904;20.648;2024-02-21T19:00:17;29;74
66150;DHT22;52952;50.904;20.648;2024-02-21T19:20:12;29;79
66150;DHT22;52952;50.904;20.648;2024-02-21T19:30:13;29;79
66150;DHT22;52952;50.904;20.648;2024-02-21T19:40:06;29;79
66150;DHT22;52952;50.904;20.648;2024-02-21T19:50:04;29;79
66150;DHT22;52952;50.904;20.648;2024-02-21T20:00:03;29;79
66150;DHT22;52952;50.904;20.648;2024-02-21T20:10:04;29;79
66150;DHT22;52952;50.904;20.648;2024-02-21T20:20:15;28;79
66150;DHT22;52952;50.904;20.648;2024-02-21T20:30:09;28;79
66150;DHT22;52952;50.904;20.648;2024-02-21T20:40:16;28;79
66150;DHT22;52952;50.904;20.648;2024-02-21T20:50:09;28;79
66150;DHT22;52952;50.904;20.648;2024-02-21T21:00:18;28;79
66150;DHT22;52952;50.904;20.648;2024-02-21T21:10:05;28;79
66150;DHT22;52952;50.904;20.648;2024-02-21T21:20:18;28;79
66150;DHT22;52952;50.904;20.648;2024-02-21T21:30:12;28;79
66150;DHT22;52952;50.904;20.648;2024-02-21T21:40:02;28;79
66150;DHT22;52952;50.904;20.648;2024-02-21T21:50:02;28;79
66150;DHT22;52952;50.904;20.648;2024-02-21T22:00:14;28;79
66150;DHT22;52952;50.904;20.648;2024-02-21T22:10:11;28;79
66150;DHT22;52952;50.904;20.648;2024-02-21T22:20:02;28;78
66150;DHT22;52952;50.904;20.648;2024-02-21T22:30:12;28;78
66150;DHT22;52952;50.904;20.648;2024-02-21T22:40:10;28;78
66150;DHT22;52952;50.904;20.648;2024-02-21T22:50:02;28;78
66150;DHT22;52952;50.904;20.648;2024-02-21T23:00:03;28;78
66150;DHT22;52952;50.904;20.648;2024-02-21T23:10:04;28;80
66150;DHT22;52952;50.904;20.648;2024-02-21T23:20:12;28;80
66150;DHT22;52952;50.904;20.648;2024-02-21T23:30:03;28;80
66150;DHT22;52952;50.904;20.648;2024-02-21T23:40:13;28;80
66150;DHT22;52952;50.904;20.648;2024-02-21T23:50:05;28;80
